createdAt,value
2018-01-07T04:31:40.967Z,4.57
2018-01-07T04:34:08.537Z,5.20
2018-01-07T04:36:36.130Z,4.80
2018-01-07T04:39:04.561Z,4.65
2018-01-07T04:41:32.138Z,4.80
2018-01-07T04:43:59.763Z,5.20
2018-01-07T04:46:27.334Z,4.22
2018-01-07T04:48:54.907Z,5.70
2018-01-07T04:51:22.533Z,5.15
2018-01-07T04:53:50.110Z,4.43
2018-01-07T04:56:17.681Z,5.28
2018-01-07T04:58:45.292Z,6.20
2018-01-07T05:01:13.624Z,5.37
2018-01-07T05:03:41.198Z,5.53
2018-01-07T05:06:08.829Z,5.57
2018-01-07T05:08:36.396Z,5.50
2018-01-07T05:11:03.965Z,5.65
2018-01-07T05:13:31.557Z,5.47
2018-01-07T05:15:59.900Z,6.75
2018-01-07T05:18:27.469Z,6.85
2018-01-07T05:20:55.072Z,6.68
2018-01-07T05:23:22.650Z,7.57
2018-01-07T05:25:50.225Z,6.90
2018-01-07T05:28:17.834Z,6.32
2018-01-07T05:30:45.414Z,6.70
2018-01-07T05:33:12.989Z,7.18
2018-01-07T05:35:40.581Z,5.50
2018-01-07T05:38:08.155Z,5.85
2018-01-07T05:40:36.524Z,6.70
2018-01-07T05:43:04.101Z,6.22
2018-01-07T05:45:32.436Z,6.50
2018-01-07T05:48:00.229Z,7.43
2018-01-07T05:50:28.569Z,7.30
2018-01-07T05:52:56.141Z,6.22
2018-01-07T05:55:23.771Z,7.97
2018-01-07T05:57:51.345Z,6.93
2018-01-07T06:00:18.924Z,6.87
2018-01-07T06:02:47.336Z,7.20
2018-01-07T06:05:14.904Z,6.40
2018-01-07T06:07:42.477Z,7.30
2018-01-07T06:10:10.093Z,7.07
2018-01-07T06:12:38.433Z,8.27
2018-01-07T06:15:06.009Z,7.45
2018-01-07T06:17:33.625Z,7.07
2018-01-07T06:20:01.197Z,6.40
2018-01-07T06:22:28.765Z,6.75
2018-01-07T06:24:56.374Z,6.65
2018-01-07T06:27:24.722Z,7.37
2018-01-07T06:29:52.293Z,6.78
2018-01-07T06:32:19.900Z,6.47
2018-01-07T06:34:47.485Z,8.23
2018-01-07T06:37:15.062Z,6.60
2018-01-07T06:39:42.674Z,7.25
2018-01-07T06:42:10.250Z,7.70
2018-01-07T06:44:37.829Z,7.62
2018-01-07T06:47:05.437Z,7.45
2018-01-07T06:49:33.041Z,7.00
2018-01-07T06:52:00.618Z,7.72
2018-01-07T06:54:28.245Z,7.65
2018-01-07T06:56:55.817Z,7.00
2018-01-07T06:59:23.394Z,7.30
2018-01-07T07:01:51.793Z,7.45
2018-01-07T07:04:20.133Z,7.87
2018-01-07T07:06:47.702Z,6.75
2018-01-07T07:09:15.297Z,6.30
2018-01-07T07:11:42.869Z,6.15
2018-01-07T07:14:10.449Z,5.18
2018-01-07T07:16:38.069Z,6.75
2018-01-07T07:19:05.642Z,5.00
2018-01-07T07:21:33.212Z,4.35
2018-01-07T07:24:00.805Z,5.78
2018-01-07T07:26:28.377Z,5.47
2018-01-07T07:28:55.989Z,6.40
2018-01-07T07:31:23.566Z,5.37
2018-01-07T07:33:51.138Z,5.85
2018-01-07T07:36:18.757Z,4.45
2018-01-07T07:38:46.332Z,4.28
2018-01-07T07:41:13.910Z,3.90
2018-01-07T07:43:41.508Z,4.20
2018-01-07T07:46:09.841Z,3.90
2018-01-07T07:48:37.413Z,3.83
2018-01-07T07:51:05.010Z,3.75
2018-01-07T07:53:32.581Z,3.53
2018-01-07T07:56:00.184Z,3.55
2018-01-07T07:58:28.811Z,3.60
2018-01-07T08:00:56.385Z,3.58
2018-01-07T08:03:23.989Z,3.12
2018-01-07T08:05:51.561Z,3.42
2018-01-07T08:08:19.137Z,3.58
2018-01-07T08:10:47.525Z,3.15
2018-01-07T08:13:15.097Z,3.58
2018-01-07T08:15:42.669Z,3.40
2018-01-07T08:18:10.277Z,4.15
2018-01-07T08:20:37.850Z,3.90
2018-01-07T08:23:06.186Z,4.30
2018-01-07T08:25:33.813Z,4.30
2018-01-07T08:28:01.389Z,4.60
2018-01-07T08:30:28.965Z,4.40
2018-01-07T08:32:56.557Z,3.53
2018-01-07T08:35:24.917Z,4.85
2018-01-07T08:37:52.701Z,3.90
2018-01-07T08:40:21.043Z,4.95
2018-01-07T08:42:48.621Z,4.50
2018-01-07T08:45:16.240Z,3.70
2018-01-07T08:47:43.809Z,4.00
2018-01-07T08:50:11.381Z,3.40
2018-01-07T08:52:39.010Z,3.65
2018-01-07T08:55:06.585Z,4.00
2018-01-07T08:57:34.158Z,3.37
2018-01-07T09:00:01.786Z,3.62
2018-01-07T09:02:29.453Z,2.65
2018-01-07T09:04:57.029Z,2.87
2018-01-07T09:07:24.629Z,3.67
2018-01-07T09:09:52.970Z,3.92
2018-01-07T09:12:20.545Z,3.65
2018-01-07T09:14:48.912Z,3.87
2018-01-07T09:17:17.359Z,3.70
2018-01-07T09:19:44.957Z,3.92
2018-01-07T09:22:12.529Z,3.80
2018-01-07T09:24:40.877Z,4.68
2018-01-07T09:27:08.478Z,4.28
2018-01-07T09:29:36.048Z,4.32
2018-01-07T09:32:03.938Z,5.40
2018-01-07T09:34:31.555Z,4.78
2018-01-07T09:36:59.889Z,5.15
2018-01-07T09:39:27.461Z,4.55
2018-01-07T09:41:55.074Z,5.53
2018-01-07T09:44:22.645Z,5.28
2018-01-07T09:46:50.217Z,5.40
2018-01-07T09:49:18.021Z,6.47
2018-01-07T09:51:46.362Z,6.40
2018-01-07T09:54:13.937Z,5.00
2018-01-07T09:56:41.529Z,6.15
2018-01-07T09:59:09.109Z,5.03
2018-01-07T10:01:36.834Z,6.05
2018-01-07T10:04:05.213Z,5.37
2018-01-07T10:06:33.560Z,6.05
2018-01-07T10:09:01.129Z,6.10
2018-01-07T10:11:28.741Z,5.70
2018-01-07T10:13:56.309Z,5.00
2018-01-07T10:16:23.884Z,5.45
2018-01-07T10:18:51.497Z,5.00
2018-01-07T10:21:19.833Z,5.40
2018-01-07T10:23:47.409Z,5.43
2018-01-07T10:26:15.014Z,6.30
2018-01-07T10:28:42.641Z,5.90
2018-01-07T10:31:10.977Z,6.45
2018-01-07T10:33:38.596Z,6.93
2018-01-07T10:36:06.943Z,6.93
2018-01-07T10:38:34.545Z,6.47
2018-01-07T10:41:02.135Z,6.12
2018-01-07T10:43:29.710Z,6.50
2018-01-07T10:45:57.309Z,6.90
2018-01-07T10:48:24.890Z,6.25
2018-01-07T10:50:52.485Z,6.68
2018-01-07T10:53:20.058Z,6.95
2018-01-07T10:55:48.396Z,8.00
2018-01-07T10:58:15.997Z,8.10
2018-01-07T11:00:50.160Z,7.20
2018-01-07T11:03:17.757Z,6.50
2018-01-07T11:05:45.336Z,6.97
2018-01-07T11:08:13.673Z,5.47
2018-01-07T11:10:41.273Z,7.47
2018-01-07T11:13:09.620Z,7.30
2018-01-07T11:15:37.200Z,5.85
2018-01-07T11:18:05.566Z,7.20
2018-01-07T11:20:33.165Z,6.65
2018-01-07T11:23:00.776Z,7.10
2018-01-07T11:25:28.349Z,6.62
2018-01-07T11:27:56.701Z,7.12
2018-01-07T11:30:24.301Z,5.40
2018-01-07T11:32:52.694Z,6.80
2018-01-07T11:35:20.325Z,7.20
2018-01-07T11:37:48.673Z,6.62
2018-01-07T11:40:16.258Z,6.80
2018-01-07T11:42:44.649Z,6.43
2018-01-07T11:45:12.990Z,6.03
2018-01-07T11:47:40.566Z,6.37
2018-01-07T11:50:09.150Z,6.50
2018-01-07T11:52:37.528Z,7.00
2018-01-07T11:55:06.432Z,5.75
2018-01-07T11:57:34.774Z,6.18
2018-01-07T12:00:02.370Z,6.20
2018-01-07T12:02:30.735Z,6.03
2018-01-07T12:04:59.082Z,5.80
2018-01-07T12:07:26.689Z,6.22
2018-01-07T12:09:54.257Z,6.10
2018-01-07T12:12:21.834Z,6.50
2018-01-07T12:14:49.428Z,5.90
2018-01-07T12:17:18.511Z,6.45
2018-01-07T12:19:46.090Z,6.62
2018-01-07T12:22:13.692Z,6.55
2018-01-07T12:24:41.261Z,5.32
2018-01-07T12:27:08.865Z,5.65
2018-01-07T12:29:36.442Z,5.10
2018-01-07T12:32:04.785Z,6.10
2018-01-07T12:34:32.381Z,6.25
2018-01-07T12:37:00.722Z,5.93
2018-01-07T12:39:28.354Z,6.40
2018-01-07T12:41:55.953Z,5.90
2018-01-07T12:44:23.695Z,6.47
2018-01-07T12:46:51.266Z,5.70
2018-01-07T12:49:18.866Z,5.60
2018-01-07T12:51:46.437Z,5.75
2018-01-07T12:54:14.061Z,5.20
2018-01-07T12:56:42.401Z,6.43
2018-01-07T12:59:09.969Z,6.55
2018-01-07T13:01:37.561Z,6.30
2018-01-07T13:04:05.897Z,5.47
2018-01-07T13:06:33.529Z,5.30
2018-01-07T13:09:01.106Z,5.00
2018-01-07T13:11:28.673Z,5.55
2018-01-07T13:13:56.309Z,4.37
2018-01-07T13:16:23.876Z,5.15
2018-01-07T13:18:51.450Z,5.12
2018-01-07T13:21:19.096Z,5.60
2018-01-07T13:23:46.693Z,5.15
2018-01-07T13:26:15.050Z,5.05
2018-01-07T13:28:42.691Z,5.20
2018-01-07T13:31:10.261Z,5.25
2018-01-07T13:33:37.834Z,5.40
2018-01-07T13:36:05.434Z,5.43
2018-01-07T13:38:33.005Z,5.60
2018-01-07T13:41:00.840Z,6.20
2018-01-07T13:43:29.188Z,6.37
2018-01-07T13:45:56.781Z,6.97
2018-01-07T13:48:25.140Z,5.68
2018-01-07T13:50:52.761Z,5.78
2018-01-07T13:53:20.357Z,6.75
2018-01-07T13:55:47.938Z,5.80
2018-01-07T13:58:16.305Z,8.63
2018-01-07T14:00:44.641Z,6.50
2018-01-07T14:03:12.261Z,7.05
2018-01-07T14:05:39.842Z,7.95
2018-01-07T14:08:07.428Z,7.10
2018-01-07T14:10:35.052Z,6.82
2018-01-07T14:13:02.633Z,7.35
2018-01-07T14:15:30.211Z,6.45
2018-01-07T14:17:57.809Z,6.30
2018-01-07T14:20:26.221Z,6.18
2018-01-07T14:22:53.793Z,6.30
2018-01-07T14:25:21.360Z,6.10
2018-01-07T14:27:48.961Z,6.93
2018-01-07T14:30:17.310Z,7.05
2018-01-07T14:32:44.936Z,7.20
2018-01-07T14:35:12.517Z,7.80
2018-01-07T14:37:40.093Z,8.77
2018-01-07T14:40:07.730Z,7.35
2018-01-07T14:42:35.309Z,7.30
2018-01-07T14:45:03.043Z,7.05
2018-01-07T14:47:31.410Z,7.57
2018-01-07T14:49:58.981Z,8.60
2018-01-07T14:52:26.593Z,8.90
2018-01-07T14:54:54.934Z,7.32
2018-01-07T14:57:22.508Z,9.07
2018-01-07T14:59:50.114Z,9.35
2018-01-07T15:02:17.691Z,7.65
2018-01-07T15:04:45.305Z,6.82
2018-01-07T15:07:13.657Z,8.23
2018-01-07T15:09:41.263Z,8.82
2018-01-07T15:12:08.882Z,8.45
2018-01-07T15:14:36.461Z,8.00
2018-01-07T15:17:04.080Z,8.80
2018-01-07T15:19:31.653Z,8.60
2018-01-07T15:21:59.229Z,7.45
2018-01-07T15:24:27.685Z,7.03
2018-01-07T15:26:55.261Z,8.00
2018-01-07T15:29:23.610Z,7.87
2018-01-07T15:31:51.213Z,7.85
2018-01-07T15:34:18.790Z,8.60
2018-01-07T15:36:46.366Z,8.20
2018-01-07T15:39:14.010Z,9.50
2018-01-07T15:41:41.581Z,8.93
2018-01-07T15:44:09.157Z,8.98
2018-01-07T15:46:36.766Z,9.65
2018-01-07T15:49:04.341Z,8.75
2018-01-07T15:51:31.957Z,8.68
2018-01-07T15:53:59.529Z,9.75
2018-01-07T15:56:27.881Z,9.48
2018-01-07T15:58:55.497Z,8.60
2018-01-07T16:01:23.087Z,10.00
2018-01-07T16:03:50.670Z,9.02
2018-01-07T16:06:18.274Z,8.75
2018-01-07T16:08:45.861Z,8.68
2018-01-07T16:11:13.495Z,9.88
2018-01-07T16:13:41.069Z,9.85
2018-01-07T16:16:08.656Z,12.02
2018-01-07T16:18:37.069Z,9.68
2018-01-07T16:21:04.651Z,9.38
2018-01-07T16:23:32.234Z,10.50
2018-01-07T16:25:59.857Z,8.82
2018-01-07T16:28:27.442Z,11.52
2018-01-07T16:30:55.025Z,11.18
2018-01-07T16:33:22.630Z,10.35
2018-01-07T16:35:50.426Z,11.27
2018-01-07T16:38:18.003Z,9.43
2018-01-07T16:40:45.577Z,10.48
2018-01-07T16:43:13.200Z,10.15
2018-01-07T16:45:40.780Z,11.52
2018-01-07T16:48:09.129Z,10.45
2018-01-07T16:50:36.728Z,10.95
2018-01-07T16:53:04.329Z,12.10
2018-01-07T16:55:31.954Z,11.93
2018-01-07T16:57:59.533Z,12.70
2018-01-07T17:00:27.877Z,12.40
2018-01-07T17:02:55.490Z,12.75
2018-01-07T17:05:23.065Z,13.02
2018-01-07T17:07:50.650Z,12.40
2018-01-07T17:10:18.253Z,12.77
2018-01-07T17:12:45.878Z,12.13
2018-01-07T17:15:13.462Z,13.60
2018-01-07T17:17:41.821Z,11.63
2018-01-07T17:20:09.437Z,13.38
2018-01-07T17:22:37.069Z,15.13
2018-01-07T17:25:05.470Z,13.00
2018-01-07T17:27:33.338Z,13.00
2018-01-07T17:30:00.929Z,13.35
2018-01-07T17:32:28.582Z,14.60
2018-01-07T17:34:56.953Z,14.07
2018-01-07T17:37:24.534Z,13.82
2018-01-07T17:39:52.143Z,12.82
2018-01-07T17:42:19.813Z,14.45
2018-01-07T17:44:47.809Z,13.15
2018-01-07T17:47:15.429Z,13.05
2018-01-07T17:49:43.015Z,13.23
2018-01-07T17:52:10.601Z,14.02
2018-01-07T17:54:38.965Z,13.40
2018-01-07T17:57:06.541Z,14.20
2018-01-07T17:59:35.022Z,14.70
2018-01-07T18:02:03.372Z,15.35
2018-01-07T18:04:31.004Z,14.93
2018-01-07T18:06:58.581Z,14.80
2018-01-07T18:09:26.166Z,15.07
2018-01-07T18:11:53.772Z,14.40
2018-01-07T18:14:21.348Z,15.30
2018-01-07T18:16:48.925Z,16.25
2018-01-07T18:19:16.540Z,15.68
2018-01-07T18:21:44.224Z,15.55
2018-01-07T18:24:11.801Z,14.18
2018-01-07T18:26:39.404Z,15.80
2018-01-07T18:29:07.753Z,14.63
2018-01-07T18:31:35.425Z,16.37
2018-01-07T18:34:03.778Z,15.27
2018-01-07T18:36:31.358Z,15.73
2018-01-07T18:38:58.990Z,15.80
2018-01-07T18:41:26.580Z,21.30
2018-01-07T18:43:55.012Z,17.35
2018-01-07T18:46:22.633Z,15.95
2018-01-07T18:48:50.978Z,16.40
2018-01-07T18:51:18.559Z,17.23
2018-01-07T18:53:46.954Z,17.65
2018-01-07T18:56:14.536Z,18.92
2018-01-07T18:58:42.117Z,17.30
2018-01-07T19:01:09.862Z,18.70
2018-01-07T19:03:37.437Z,19.65
2018-01-07T19:06:05.019Z,17.10
2018-01-07T19:08:32.656Z,20.60
2018-01-07T19:11:00.238Z,17.95
2018-01-07T19:13:27.817Z,17.87
2018-01-07T19:15:56.185Z,18.02
2018-01-07T19:18:24.528Z,18.70
2018-01-07T19:20:52.144Z,18.35
2018-01-07T19:23:19.721Z,18.20
2018-01-07T19:25:47.301Z,19.25
2018-01-07T19:28:14.925Z,19.48
2018-01-07T19:30:42.505Z,21.83
2018-01-07T19:33:10.077Z,20.05
2018-01-07T19:35:37.676Z,20.65
2018-01-07T19:38:06.021Z,20.48
2018-01-07T19:40:33.602Z,19.60
2018-01-07T19:43:01.990Z,20.58
2018-01-07T19:45:30.417Z,18.52
2018-01-07T19:47:58.042Z,16.52
2018-01-07T19:50:26.472Z,18.65
2018-01-07T19:52:54.053Z,18.60
2018-01-07T19:55:21.677Z,18.00
2018-01-07T19:57:49.253Z,18.40
2018-01-07T20:00:16.837Z,17.85
2018-01-07T20:02:45.244Z,19.80
2018-01-07T20:05:12.837Z,19.45
2018-01-07T20:07:40.413Z,19.30
2018-01-07T20:10:08.018Z,18.52
2018-01-07T20:12:35.608Z,17.42
2018-01-07T20:15:03.191Z,17.02
2018-01-07T20:17:30.808Z,18.45
2018-01-07T20:19:58.406Z,19.02
2018-01-07T20:22:25.991Z,19.58
2018-01-07T20:24:54.401Z,20.83
2018-01-07T20:27:22.001Z,21.17
2018-01-07T20:29:49.649Z,22.25
2018-01-07T20:32:17.301Z,20.88
2018-01-07T20:34:44.883Z,21.50
2018-01-07T20:37:12.478Z,24.85
2018-01-07T20:39:40.106Z,22.70
2018-01-07T20:42:07.690Z,20.65
2018-01-07T20:44:36.078Z,21.48
2018-01-07T20:47:03.653Z,22.45
2018-01-07T20:49:31.236Z,22.80
2018-01-07T20:51:58.837Z,22.15
2018-01-07T20:54:27.181Z,20.50
2018-01-07T20:56:54.765Z,21.62
2018-01-07T20:59:22.439Z,21.12
2018-01-07T21:01:49.997Z,21.52
2018-01-07T21:04:18.343Z,21.80
2018-01-07T21:06:45.964Z,20.65
2018-01-07T21:09:13.546Z,21.35
2018-01-07T21:11:41.129Z,19.77
2018-01-07T21:14:08.737Z,19.12
2018-01-07T21:16:36.318Z,20.52
2018-01-07T21:19:04.088Z,20.17
2018-01-07T21:21:31.658Z,20.30
2018-01-07T21:23:59.238Z,18.27
2018-01-07T21:26:27.609Z,20.83
2018-01-07T21:28:55.189Z,20.65
2018-01-07T21:31:23.573Z,19.20
2018-01-07T21:33:51.169Z,20.08
2018-01-07T21:36:18.745Z,19.48
2018-01-07T21:38:46.361Z,20.35
2018-01-07T21:41:13.941Z,19.60
2018-01-07T21:43:41.521Z,21.40
2018-01-07T21:46:09.133Z,20.10
2018-01-07T21:48:36.717Z,22.90
2018-01-07T21:51:04.298Z,19.65
2018-01-07T21:53:31.925Z,20.30
2018-01-07T21:55:59.506Z,19.92
2018-01-07T21:58:27.086Z,20.37
2018-01-07T22:01:06.593Z,19.83
2018-01-07T22:03:46.193Z,20.23
2018-01-07T22:06:26.469Z,20.58
2018-01-07T22:08:54.045Z,22.42
2018-01-07T22:11:21.626Z,23.30
2018-01-07T22:13:49.245Z,21.10
2018-01-07T22:16:16.821Z,21.08
2018-01-07T22:18:44.397Z,21.00
2018-01-07T22:21:12.018Z,20.45
2018-01-07T22:23:39.598Z,22.85
2018-01-07T22:26:07.173Z,22.02
2018-01-07T22:28:34.798Z,22.77
2018-01-07T22:31:02.373Z,21.75
2018-01-07T22:33:29.945Z,22.05
2018-01-07T22:35:57.541Z,22.20
2018-01-07T22:38:25.886Z,23.10
2018-01-07T22:40:53.529Z,23.23
2018-01-07T22:43:21.110Z,22.85
2018-01-07T22:45:48.954Z,25.15
2018-01-07T22:48:16.577Z,23.80
2018-01-07T22:50:44.921Z,22.45
2018-01-07T22:53:12.493Z,24.48
2018-01-07T22:55:40.093Z,24.02
2018-01-07T22:58:07.674Z,24.25
2018-01-07T23:00:35.298Z,25.60
2018-01-07T23:03:02.877Z,23.85
2018-01-07T23:05:30.449Z,24.65
2018-01-07T23:07:58.051Z,25.00
2018-01-07T23:10:26.393Z,23.25
2018-01-07T23:12:53.968Z,24.05
2018-01-07T23:15:21.594Z,23.00
2018-01-07T23:17:49.177Z,22.95
2018-01-07T23:20:16.757Z,24.27
2018-01-07T23:22:44.361Z,22.77
2018-01-07T23:25:11.937Z,26.50
2018-01-07T23:27:39.517Z,24.60
